LIBD METAR and TAF | Updated Today

LIBD METAR

Bari Karol Wojtyła Airport

Observation time: 13 min. ago

LIBD 292050Z 19007KT CAVOK 21/14 Q1007

Need help? Read our tutorial on how to read METARs or read the parsed version below.

Bari Karol Wojtyła Airport (LIBD) METAR

  • Weather conditions on Thu, 29 Sep 2022 20:50:00 +0000 (13 min. ago):
  • Present conditions: Dry
  • Clouds: Clear skies
  • Visibility: Greater than 10 km
  • Wind: 190 degrees at 7 knots
  • Temperature: 21 celsius
  • Dew point: 14 celsius
  • Pressure: 1007 millibars
  • Remarks: None


Useful to know...

LIBD TAF

Bari Karol Wojtyła Airport

TAF LIBD 291700Z 2918/3018 17013KT CAVOK
Observation time: 4:03 hr. ago
Need help? Read our tutorial on how to read TAFs or read the parsed version below.

Parsed version of TAF for Bari Karol Wojtyła Airport (LIBD)

  • From 29 September at 18:00 UTC, to day 30 of the month at 18:00 UTC
  • Visibility: Greater than 10 km
  • Wind: 170 degrees at 13

Airports near LIBD